sensor_id;sensor_type;location;lat;lon;timestamp;P1;durP1;ratioP1;P2;durP2;ratioP2
36585;SDS011;22591;48.314;11.562;2022-11-20T00:01:19;10.73;;;6.60;;
36585;SDS011;22591;48.314;11.562;2022-11-20T00:03:46;6.30;;;5.78;;
36585;SDS011;22591;48.314;11.562;2022-11-20T00:06:13;7.13;;;5.97;;
36585;SDS011;22591;48.314;11.562;2022-11-20T00:08:40;6.82;;;6.22;;
36585;SDS011;22591;48.314;11.562;2022-11-20T00:11:07;6.70;;;6.18;;
36585;SDS011;22591;48.314;11.562;2022-11-20T00:13:34;5.82;;;5.32;;
36585;SDS011;22591;48.314;11.562;2022-11-20T00:16:01;6.93;;;6.25;;
36585;SDS011;22591;48.314;11.562;2022-11-20T00:18:28;6.47;;;5.97;;
36585;SDS011;22591;48.314;11.562;2022-11-20T00:20:59;6.40;;;5.80;;
36585;SDS011;22591;48.314;11.562;2022-11-20T00:23:33;6.95;;;6.40;;
36585;SDS011;22591;48.314;11.562;2022-11-20T00:26:02;7.47;;;6.25;;
36585;SDS011;22591;48.314;11.562;2022-11-20T00:28:29;8.77;;;6.22;;
36585;SDS011;22591;48.314;11.562;2022-11-20T00:31:05;6.35;;;5.82;;
36585;SDS011;22591;48.314;11.562;2022-11-20T00:33:40;6.45;;;5.88;;
36585;SDS011;22591;48.314;11.562;2022-11-20T00:36:08;6.60;;;6.00;;
36585;SDS011;22591;48.314;11.562;2022-11-20T00:38:35;7.25;;;6.57;;
36585;SDS011;22591;48.314;11.562;2022-11-20T00:41:03;7.40;;;6.80;;
36585;SDS011;22591;48.314;11.562;2022-11-20T00:43:31;8.18;;;6.00;;
36585;SDS011;22591;48.314;11.562;2022-11-20T00:46:06;7.47;;;6.78;;
36585;SDS011;22591;48.314;11.562;2022-11-20T00:48:33;6.97;;;6.30;;
36585;SDS011;22591;48.314;11.562;2022-11-20T00:50:59;6.40;;;5.80;;
36585;SDS011;22591;48.314;11.562;2022-11-20T00:53:25;6.25;;;5.70;;
36585;SDS011;22591;48.314;11.562;2022-11-20T00:58:25;7.68;;;5.90;;
36585;SDS011;22591;48.314;11.562;2022-11-20T01:01:06;7.75;;;6.07;;
36585;SDS011;22591;48.314;11.562;2022-11-20T01:03:34;6.78;;;6.13;;
36585;SDS011;22591;48.314;11.562;2022-11-20T01:06:05;5.57;;;5.07;;
36585;SDS011;22591;48.314;11.562;2022-11-20T01:08:36;6.82;;;6.07;;
36585;SDS011;22591;48.314;11.562;2022-11-20T01:11:06;5.70;;;5.30;;
36585;SDS011;22591;48.314;11.562;2022-11-20T01:13:33;6.20;;;5.70;;
36585;SDS011;22591;48.314;11.562;2022-11-20T01:16:03;5.88;;;5.38;;
36585;SDS011;22591;48.314;11.562;2022-11-20T01:18:33;5.78;;;5.38;;
36585;SDS011;22591;48.314;11.562;2022-11-20T01:21:00;6.18;;;5.68;;
36585;SDS011;22591;48.314;11.562;2022-11-20T01:23:31;8.45;;;5.15;;
36585;SDS011;22591;48.314;11.562;2022-11-20T01:25:59;6.15;;;5.55;;
36585;SDS011;22591;48.314;11.562;2022-11-20T01:28:26;5.75;;;5.20;;
36585;SDS011;22591;48.314;11.562;2022-11-20T01:30:52;7.22;;;5.57;;
36585;SDS011;22591;48.314;11.562;2022-11-20T01:33:17;5.97;;;5.47;;
36585;SDS011;22591;48.314;11.562;2022-11-20T01:35:43;7.40;;;5.53;;
36585;SDS011;22591;48.314;11.562;2022-11-20T01:38:08;5.00;;;4.70;;
36585;SDS011;22591;48.314;11.562;2022-11-20T01:40:34;5.32;;;4.93;;
36585;SDS011;22591;48.314;11.562;2022-11-20T01:43:18;5.85;;;5.45;;
36585;SDS011;22591;48.314;11.562;2022-11-20T01:51:00;6.97;;;6.35;;
36585;SDS011;22591;48.314;11.562;2022-11-20T01:53:28;5.70;;;5.30;;
36585;SDS011;22591;48.314;11.562;2022-11-20T01:55:58;10.15;;;5.25;;
36585;SDS011;22591;48.314;11.562;2022-11-20T01:58:28;6.45;;;5.95;;
36585;SDS011;22591;48.314;11.562;2022-11-20T02:00:57;5.72;;;5.22;;
36585;SDS011;22591;48.314;11.562;2022-11-20T02:03:22;6.72;;;6.10;;
36585;SDS011;22591;48.314;11.562;2022-11-20T02:08:23;6.78;;;6.25;;
36585;SDS011;22591;48.314;11.562;2022-11-20T02:10:48;7.75;;;5.60;;
36585;SDS011;22591;48.314;11.562;2022-11-20T02:13:14;6.20;;;5.60;;
36585;SDS011;22591;48.314;11.562;2022-11-20T02:15:59;6.40;;;5.80;;
36585;SDS011;22591;48.314;11.562;2022-11-20T02:18:25;6.78;;;5.57;;
36585;SDS011;22591;48.314;11.562;2022-11-20T02:20:53;6.03;;;5.60;;
36585;SDS011;22591;48.314;11.562;2022-11-20T02:25:56;5.88;;;5.38;;
36585;SDS011;22591;48.314;11.562;2022-11-20T02:28:23;5.32;;;4.93;;
36585;SDS011;22591;48.314;11.562;2022-11-20T02:30:48;5.95;;;5.35;;
36585;SDS011;22591;48.314;11.562;2022-11-20T02:33:14;5.75;;;5.25;;
36585;SDS011;22591;48.314;11.562;2022-11-20T02:35:41;6.90;;;6.15;;
36585;SDS011;22591;48.314;11.562;2022-11-20T02:38:08;6.13;;;5.63;;
36585;SDS011;22591;48.314;11.562;2022-11-20T02:40:34;6.53;;;6.03;;
36585;SDS011;22591;48.314;11.562;2022-11-20T02:43:00;6.57;;;5.97;;
36585;SDS011;22591;48.314;11.562;2022-11-20T02:45:25;7.28;;;6.57;;
36585;SDS011;22591;48.314;11.562;2022-11-20T02:47:51;6.65;;;6.05;;
36585;SDS011;22591;48.314;11.562;2022-11-20T02:50:17;6.15;;;5.70;;
36585;SDS011;22591;48.314;11.562;2022-11-20T02:52:43;7.00;;;6.50;;
36585;SDS011;22591;48.314;11.562;2022-11-20T02:55:08;6.68;;;6.07;;
36585;SDS011;22591;48.314;11.562;2022-11-20T02:57:34;6.53;;;6.00;;
36585;SDS011;22591;48.314;11.562;2022-11-20T02:59:59;6.72;;;6.18;;
36585;SDS011;22591;48.314;11.562;2022-11-20T03:02:25;8.90;;;6.30;;
36585;SDS011;22591;48.314;11.562;2022-11-20T03:04:54;6.93;;;6.43;;
36585;SDS011;22591;48.314;11.562;2022-11-20T03:07:19;6.70;;;6.07;;
36585;SDS011;22591;48.314;11.562;2022-11-20T03:09:45;7.70;;;6.40;;
36585;SDS011;22591;48.314;11.562;2022-11-20T03:12:10;6.88;;;6.18;;
36585;SDS011;22591;48.314;11.562;2022-11-20T03:14:36;6.28;;;5.72;;
36585;SDS011;22591;48.314;11.562;2022-11-20T03:17:01;6.90;;;6.40;;
36585;SDS011;22591;48.314;11.562;2022-11-20T03:19:27;6.65;;;6.15;;
36585;SDS011;22591;48.314;11.562;2022-11-20T03:21:52;7.68;;;6.32;;
36585;SDS011;22591;48.314;11.562;2022-11-20T03:24:18;7.07;;;5.97;;
36585;SDS011;22591;48.314;11.562;2022-11-20T03:26:43;8.18;;;6.28;;
36585;SDS011;22591;48.314;11.562;2022-11-20T03:29:09;7.05;;;6.38;;
36585;SDS011;22591;48.314;11.562;2022-11-20T03:31:36;7.47;;;6.63;;
36585;SDS011;22591;48.314;11.562;2022-11-20T03:34:05;6.25;;;5.80;;
36585;SDS011;22591;48.314;11.562;2022-11-20T03:36:30;6.57;;;6.07;;
36585;SDS011;22591;48.314;11.562;2022-11-20T03:38:56;6.85;;;6.20;;
36585;SDS011;22591;48.314;11.562;2022-11-20T03:41:23;6.32;;;5.80;;
36585;SDS011;22591;48.314;11.562;2022-11-20T03:43:51;6.68;;;6.10;;
36585;SDS011;22591;48.314;11.562;2022-11-20T03:46:21;6.32;;;5.93;;
36585;SDS011;22591;48.314;11.562;2022-11-20T03:48:47;6.80;;;6.07;;
36585;SDS011;22591;48.314;11.562;2022-11-20T03:51:14;6.00;;;5.47;;
36585;SDS011;22591;48.314;11.562;2022-11-20T03:53:42;6.60;;;6.18;;
36585;SDS011;22591;48.314;11.562;2022-11-20T03:56:09;6.57;;;5.90;;
36585;SDS011;22591;48.314;11.562;2022-11-20T03:58:35;5.30;;;5.00;;
36585;SDS011;22591;48.314;11.562;2022-11-20T04:01:08;6.13;;;5.63;;
36585;SDS011;22591;48.314;11.562;2022-11-20T04:03:39;7.40;;;6.80;;
36585;SDS011;22591;48.314;11.562;2022-11-20T04:08:37;6.75;;;6.07;;
36585;SDS011;22591;48.314;11.562;2022-11-20T04:13:36;8.02;;;7.22;;
36585;SDS011;22591;48.314;11.562;2022-11-20T04:16:02;6.20;;;5.15;;
36585;SDS011;22591;48.314;11.562;2022-11-20T04:18:27;5.85;;;5.35;;
36585;SDS011;22591;48.314;11.562;2022-11-20T04:20:53;6.00;;;5.40;;
36585;SDS011;22591;48.314;11.562;2022-11-20T04:23:18;4.45;;;4.15;;
36585;SDS011;22591;48.314;11.562;2022-11-20T04:25:44;6.25;;;5.63;;
36585;SDS011;22591;48.314;11.562;2022-11-20T04:28:09;6.57;;;5.97;;
36585;SDS011;22591;48.314;11.562;2022-11-20T04:30:35;5.22;;;4.75;;
36585;SDS011;22591;48.314;11.562;2022-11-20T04:33:00;6.22;;;5.47;;
36585;SDS011;22591;48.314;11.562;2022-11-20T04:35:26;5.20;;;4.70;;
36585;SDS011;22591;48.314;11.562;2022-11-20T04:37:52;5.65;;;5.00;;
36585;SDS011;22591;48.314;11.562;2022-11-20T04:40:17;5.38;;;4.95;;
36585;SDS011;22591;48.314;11.562;2022-11-20T04:42:43;5.60;;;5.20;;
36585;SDS011;22591;48.314;11.562;2022-11-20T04:45:08;5.75;;;5.18;;
36585;SDS011;22591;48.314;11.562;2022-11-20T04:47:34;4.63;;;4.25;;
36585;SDS011;22591;48.314;11.562;2022-11-20T04:49:59;3.92;;;3.63;;
36585;SDS011;22591;48.314;11.562;2022-11-20T04:52:25;4.10;;;3.80;;
36585;SDS011;22591;48.314;11.562;2022-11-20T04:54:51;4.40;;;4.00;;
36585;SDS011;22591;48.314;11.562;2022-11-20T04:57:18;4.25;;;3.85;;
36585;SDS011;22591;48.314;11.562;2022-11-20T04:59:44;4.57;;;4.18;;
36585;SDS011;22591;48.314;11.562;2022-11-20T05:02:10;5.07;;;4.53;;
36585;SDS011;22591;48.314;11.562;2022-11-20T05:04:36;4.88;;;4.38;;
36585;SDS011;22591;48.314;11.562;2022-11-20T05:07:02;4.90;;;4.60;;
36585;SDS011;22591;48.314;11.562;2022-11-20T05:09:27;4.97;;;4.53;;
36585;SDS011;22591;48.314;11.562;2022-11-20T05:11:53;5.97;;;5.47;;
36585;SDS011;22591;48.314;11.562;2022-11-20T05:14:18;5.93;;;5.45;;
36585;SDS011;22591;48.314;11.562;2022-11-20T05:16:44;5.53;;;5.03;;
36585;SDS011;22591;48.314;11.562;2022-11-20T05:19:10;5.20;;;4.80;;
36585;SDS011;22591;48.314;11.562;2022-11-20T05:21:35;6.65;;;5.43;;
36585;SDS011;22591;48.314;11.562;2022-11-20T05:24:01;4.95;;;4.47;;
36585;SDS011;22591;48.314;11.562;2022-11-20T05:26:26;4.95;;;4.60;;
36585;SDS011;22591;48.314;11.562;2022-11-20T05:28:52;4.82;;;4.43;;
36585;SDS011;22591;48.314;11.562;2022-11-20T05:31:18;4.93;;;4.53;;
36585;SDS011;22591;48.314;11.562;2022-11-20T05:33:46;4.88;;;4.50;;
36585;SDS011;22591;48.314;11.562;2022-11-20T05:36:12;5.20;;;4.90;;
36585;SDS011;22591;48.314;11.562;2022-11-20T05:38:39;5.70;;;5.20;;
36585;SDS011;22591;48.314;11.562;2022-11-20T05:41:18;5.32;;;4.93;;
36585;SDS011;22591;48.314;11.562;2022-11-20T05:43:45;4.82;;;4.45;;
36585;SDS011;22591;48.314;11.562;2022-11-20T05:46:13;5.20;;;4.82;;
36585;SDS011;22591;48.314;11.562;2022-11-20T05:48:40;5.05;;;4.68;;
36585;SDS011;22591;48.314;11.562;2022-11-20T05:51:09;4.60;;;4.20;;
36585;SDS011;22591;48.314;11.562;2022-11-20T05:53:36;5.28;;;4.82;;
36585;SDS011;22591;48.314;11.562;2022-11-20T05:56:06;5.07;;;4.68;;
36585;SDS011;22591;48.314;11.562;2022-11-20T05:58:35;4.50;;;4.18;;
36585;SDS011;22591;48.314;11.562;2022-11-20T06:03:38;5.82;;;5.35;;
36585;SDS011;22591;48.314;11.562;2022-11-20T06:06:05;4.68;;;4.38;;
36585;SDS011;22591;48.314;11.562;2022-11-20T06:08:31;4.97;;;4.57;;
36585;SDS011;22591;48.314;11.562;2022-11-20T06:10:57;4.60;;;4.20;;
36585;SDS011;22591;48.314;11.562;2022-11-20T06:13:23;4.30;;;4.00;;
36585;SDS011;22591;48.314;11.562;2022-11-20T06:15:49;4.40;;;4.10;;
36585;SDS011;22591;48.314;11.562;2022-11-20T06:18:16;4.28;;;3.97;;
36585;SDS011;22591;48.314;11.562;2022-11-20T06:20:41;6.20;;;5.60;;
36585;SDS011;22591;48.314;11.562;2022-11-20T06:23:07;5.43;;;4.97;;
36585;SDS011;22591;48.314;11.562;2022-11-20T06:25:32;4.60;;;4.28;;
36585;SDS011;22591;48.314;11.562;2022-11-20T06:27:58;5.20;;;4.70;;
36585;SDS011;22591;48.314;11.562;2022-11-20T06:30:26;4.72;;;4.35;;
36585;SDS011;22591;48.314;11.562;2022-11-20T06:32:51;4.72;;;4.43;;
36585;SDS011;22591;48.314;11.562;2022-11-20T06:35:17;5.72;;;5.22;;
36585;SDS011;22591;48.314;11.562;2022-11-20T06:37:42;4.15;;;3.92;;
36585;SDS011;22591;48.314;11.562;2022-11-20T06:40:08;4.85;;;4.45;;
36585;SDS011;22591;48.314;11.562;2022-11-20T06:42:34;6.28;;;5.68;;
36585;SDS011;22591;48.314;11.562;2022-11-20T06:45:00;5.88;;;5.38;;
36585;SDS011;22591;48.314;11.562;2022-11-20T06:47:25;5.30;;;4.57;;
36585;SDS011;22591;48.314;11.562;2022-11-20T06:49:51;4.35;;;4.05;;
36585;SDS011;22591;48.314;11.562;2022-11-20T06:52:16;4.50;;;4.10;;
36585;SDS011;22591;48.314;11.562;2022-11-20T06:54:42;4.75;;;4.45;;
36585;SDS011;22591;48.314;11.562;2022-11-20T06:57:07;6.07;;;4.28;;
36585;SDS011;22591;48.314;11.562;2022-11-20T06:59:33;4.00;;;3.80;;
36585;SDS011;22591;48.314;11.562;2022-11-20T07:01:58;3.85;;;3.65;;
36585;SDS011;22591;48.314;11.562;2022-11-20T07:04:24;5.00;;;4.53;;
36585;SDS011;22591;48.314;11.562;2022-11-20T07:06:49;7.72;;;4.43;;
36585;SDS011;22591;48.314;11.562;2022-11-20T07:09:15;4.50;;;4.20;;
36585;SDS011;22591;48.314;11.562;2022-11-20T07:11:41;4.57;;;4.28;;
36585;SDS011;22591;48.314;11.562;2022-11-20T07:14:06;4.50;;;4.10;;
36585;SDS011;22591;48.314;11.562;2022-11-20T07:16:32;4.55;;;4.25;;
36585;SDS011;22591;48.314;11.562;2022-11-20T07:18:58;4.43;;;4.15;;
36585;SDS011;22591;48.314;11.562;2022-11-20T07:21:23;5.28;;;4.78;;
36585;SDS011;22591;48.314;11.562;2022-11-20T07:23:49;5.13;;;4.53;;
36585;SDS011;22591;48.314;11.562;2022-11-20T07:26:14;5.45;;;4.95;;
36585;SDS011;22591;48.314;11.562;2022-11-20T07:28:40;5.75;;;5.25;;
36585;SDS011;22591;48.314;11.562;2022-11-20T07:31:09;7.60;;;5.43;;
36585;SDS011;22591;48.314;11.562;2022-11-20T07:33:34;5.57;;;5.05;;
36585;SDS011;22591;48.314;11.562;2022-11-20T07:36:00;5.50;;;5.00;;
36585;SDS011;22591;48.314;11.562;2022-11-20T07:38:26;4.85;;;4.40;;
36585;SDS011;22591;48.314;11.562;2022-11-20T07:40:55;4.88;;;4.47;;
36585;SDS011;22591;48.314;11.562;2022-11-20T07:43:22;4.72;;;4.43;;
36585;SDS011;22591;48.314;11.562;2022-11-20T07:45:48;4.95;;;4.60;;
36585;SDS011;22591;48.314;11.562;2022-11-20T07:48:14;5.22;;;4.80;;
36585;SDS011;22591;48.314;11.562;2022-11-20T07:50:39;5.47;;;5.07;;
36585;SDS011;22591;48.314;11.562;2022-11-20T07:53:05;6.28;;;5.60;;
36585;SDS011;22591;48.314;11.562;2022-11-20T07:55:31;5.10;;;4.70;;
36585;SDS011;22591;48.314;11.562;2022-11-20T07:57:57;5.43;;;5.13;;
36585;SDS011;22591;48.314;11.562;2022-11-20T08:00:24;4.70;;;4.40;;
36585;SDS011;22591;48.314;11.562;2022-11-20T08:02:50;5.40;;;4.43;;
36585;SDS011;22591;48.314;11.562;2022-11-20T08:05:16;4.57;;;4.18;;
36585;SDS011;22591;48.314;11.562;2022-11-20T08:07:43;5.55;;;4.97;;
36585;SDS011;22591;48.314;11.562;2022-11-20T08:10:09;4.68;;;4.32;;
36585;SDS011;22591;48.314;11.562;2022-11-20T08:12:44;4.47;;;4.15;;
36585;SDS011;22591;48.314;11.562;2022-11-20T08:15:32;5.30;;;4.90;;
36585;SDS011;22591;48.314;11.562;2022-11-20T08:17:59;4.85;;;4.55;;
36585;SDS011;22591;48.314;11.562;2022-11-20T08:20:25;5.03;;;4.72;;
36585;SDS011;22591;48.314;11.562;2022-11-20T08:22:50;5.07;;;4.50;;
36585;SDS011;22591;48.314;11.562;2022-11-20T08:25:16;4.07;;;3.80;;
36585;SDS011;22591;48.314;11.562;2022-11-20T08:27:41;5.30;;;3.95;;
36585;SDS011;22591;48.314;11.562;2022-11-20T08:30:07;4.63;;;4.32;;
36585;SDS011;22591;48.314;11.562;2022-11-20T08:32:33;4.38;;;3.75;;
36585;SDS011;22591;48.314;11.562;2022-11-20T08:35:01;4.20;;;3.90;;
36585;SDS011;22591;48.314;11.562;2022-11-20T08:37:26;4.50;;;4.20;;
36585;SDS011;22591;48.314;11.562;2022-11-20T08:39:52;4.05;;;3.75;;
36585;SDS011;22591;48.314;11.562;2022-11-20T08:42:18;5.03;;;4.63;;
36585;SDS011;22591;48.314;11.562;2022-11-20T08:44:44;4.70;;;4.25;;
36585;SDS011;22591;48.314;11.562;2022-11-20T08:47:09;4.45;;;4.05;;
36585;SDS011;22591;48.314;11.562;2022-11-20T08:49:35;4.55;;;4.20;;
36585;SDS011;22591;48.314;11.562;2022-11-20T08:52:01;4.50;;;4.10;;
36585;SDS011;22591;48.314;11.562;2022-11-20T08:54:26;3.75;;;3.55;;
36585;SDS011;22591;48.314;11.562;2022-11-20T08:56:52;4.43;;;4.13;;
36585;SDS011;22591;48.314;11.562;2022-11-20T08:59:17;4.88;;;4.47;;
36585;SDS011;22591;48.314;11.562;2022-11-20T09:01:43;5.07;;;4.28;;
36585;SDS011;22591;48.314;11.562;2022-11-20T09:04:08;3.80;;;3.50;;
36585;SDS011;22591;48.314;11.562;2022-11-20T09:06:34;5.13;;;4.72;;
36585;SDS011;22591;48.314;11.562;2022-11-20T09:08:59;4.45;;;4.15;;
36585;SDS011;22591;48.314;11.562;2022-11-20T09:11:25;4.90;;;3.97;;
36585;SDS011;22591;48.314;11.562;2022-11-20T09:13:50;9.73;;;4.13;;
36585;SDS011;22591;48.314;11.562;2022-11-20T09:16:16;4.00;;;3.70;;
36585;SDS011;22591;48.314;11.562;2022-11-20T09:18:42;4.25;;;3.85;;
36585;SDS011;22591;48.314;11.562;2022-11-20T09:21:11;4.15;;;3.90;;
36585;SDS011;22591;48.314;11.562;2022-11-20T09:23:38;6.35;;;3.78;;
36585;SDS011;22591;48.314;11.562;2022-11-20T09:26:05;4.45;;;4.03;;
36585;SDS011;22591;48.314;11.562;2022-11-20T09:28:35;3.08;;;2.97;;
36585;SDS011;22591;48.314;11.562;2022-11-20T09:31:04;4.40;;;4.10;;
36585;SDS011;22591;48.314;11.562;2022-11-20T09:33:31;4.88;;;4.57;;
36585;SDS011;22591;48.314;11.562;2022-11-20T09:35:56;4.25;;;3.92;;
36585;SDS011;22591;48.314;11.562;2022-11-20T09:38:22;4.85;;;4.45;;
36585;SDS011;22591;48.314;11.562;2022-11-20T09:40:57;4.15;;;3.78;;
36585;SDS011;22591;48.314;11.562;2022-11-20T09:46:48;3.47;;;3.28;;
36585;SDS011;22591;48.314;11.562;2022-11-20T09:55:10;5.22;;;3.72;;
36585;SDS011;22591;48.314;11.562;2022-11-20T09:57:42;3.88;;;3.67;;
36585;SDS011;22591;48.314;11.562;2022-11-20T10:00:13;3.63;;;3.22;;
36585;SDS011;22591;48.314;11.562;2022-11-20T10:07:54;4.10;;;3.80;;
36585;SDS011;22591;48.314;11.562;2022-11-20T10:10:33;3.53;;;3.25;;
36585;SDS011;22591;48.314;11.562;2022-11-20T10:16:09;4.05;;;3.63;;
36585;SDS011;22591;48.314;11.562;2022-11-20T10:18:39;3.53;;;3.22;;
36585;SDS011;22591;48.314;11.562;2022-11-20T10:21:53;3.45;;;3.25;;
36585;SDS011;22591;48.314;11.562;2022-11-20T10:24:55;4.00;;;3.00;;
36585;SDS011;22591;48.314;11.562;2022-11-20T10:30:20;3.70;;;3.35;;
36585;SDS011;22591;48.314;11.562;2022-11-20T10:32:54;3.53;;;3.22;;
36585;SDS011;22591;48.314;11.562;2022-11-20T10:35:25;3.05;;;2.85;;
36585;SDS011;22591;48.314;11.562;2022-11-20T10:38:00;3.78;;;3.47;;
36585;SDS011;22591;48.314;11.562;2022-11-20T10:45:45;3.03;;;2.78;;
36585;SDS011;22591;48.314;11.562;2022-11-20T10:48:22;3.38;;;2.70;;
36585;SDS011;22591;48.314;11.562;2022-11-20T10:50:55;2.95;;;2.45;;
36585;SDS011;22591;48.314;11.562;2022-11-20T10:56:20;2.38;;;2.17;;
36585;SDS011;22591;48.314;11.562;2022-11-20T10:58:59;2.75;;;1.88;;
36585;SDS011;22591;48.314;11.562;2022-11-20T11:01:39;2.72;;;2.53;;
36585;SDS011;22591;48.314;11.562;2022-11-20T11:07:09;2.50;;;2.30;;
36585;SDS011;22591;48.314;11.562;2022-11-20T11:09:46;1.77;;;1.67;;
36585;SDS011;22591;48.314;11.562;2022-11-20T11:12:14;2.83;;;2.65;;
36585;SDS011;22591;48.314;11.562;2022-11-20T11:14:58;2.10;;;2.00;;
36585;SDS011;22591;48.314;11.562;2022-11-20T11:17:28;2.05;;;1.95;;
36585;SDS011;22591;48.314;11.562;2022-11-20T11:22:30;2.17;;;2.08;;
36585;SDS011;22591;48.314;11.562;2022-11-20T11:24:57;1.92;;;1.83;;
36585;SDS011;22591;48.314;11.562;2022-11-20T11:27:23;2.08;;;1.90;;
36585;SDS011;22591;48.314;11.562;2022-11-20T11:29:49;2.47;;;2.08;;
36585;SDS011;22591;48.314;11.562;2022-11-20T11:32:25;2.25;;;2.13;;
36585;SDS011;22591;48.314;11.562;2022-11-20T11:37:34;2.30;;;2.20;;
36585;SDS011;22591;48.314;11.562;2022-11-20T11:40:03;1.60;;;1.55;;
36585;SDS011;22591;48.314;11.562;2022-11-20T11:42:29;1.90;;;1.80;;
36585;SDS011;22591;48.314;11.562;2022-11-20T11:44:56;1.88;;;1.77;;
36585;SDS011;22591;48.314;11.562;2022-11-20T11:52:48;2.40;;;2.15;;
36585;SDS011;22591;48.314;11.562;2022-11-20T12:00:36;2.40;;;2.10;;
36585;SDS011;22591;48.314;11.562;2022-11-20T12:03:22;2.17;;;1.98;;
36585;SDS011;22591;48.314;11.562;2022-11-20T12:05:57;5.15;;;4.38;;
36585;SDS011;22591;48.314;11.562;2022-11-20T12:08:27;3.33;;;3.03;;
36585;SDS011;22591;48.314;11.562;2022-11-20T12:16:17;3.45;;;2.13;;
36585;SDS011;22591;48.314;11.562;2022-11-20T12:18:44;3.95;;;2.75;;
36585;SDS011;22591;48.314;11.562;2022-11-20T12:23:59;2.40;;;2.20;;
36585;SDS011;22591;48.314;11.562;2022-11-20T12:32:29;3.03;;;2.80;;
36585;SDS011;22591;48.314;11.562;2022-11-20T12:47:36;2.47;;;2.05;;
36585;SDS011;22591;48.314;11.562;2022-11-20T12:53:31;3.88;;;3.58;;
36585;SDS011;22591;48.314;11.562;2022-11-20T12:56:16;2.85;;;2.60;;
36585;SDS011;22591;48.314;11.562;2022-11-20T12:58:53;2.30;;;2.17;;
36585;SDS011;22591;48.314;11.562;2022-11-20T13:01:45;3.55;;;3.00;;
36585;SDS011;22591;48.314;11.562;2022-11-20T13:07:15;2.35;;;2.10;;
36585;SDS011;22591;48.314;11.562;2022-11-20T13:09:46;3.40;;;3.00;;
36585;SDS011;22591;48.314;11.562;2022-11-20T13:12:19;2.47;;;2.38;;
36585;SDS011;22591;48.314;11.562;2022-11-20T13:14:54;3.67;;;3.30;;
36585;SDS011;22591;48.314;11.562;2022-11-20T13:17:43;2.90;;;2.47;;
36585;SDS011;22591;48.314;11.562;2022-11-20T13:20:23;3.42;;;3.13;;
36585;SDS011;22591;48.314;11.562;2022-11-20T13:22:49;2.53;;;2.42;;
36585;SDS011;22591;48.314;11.562;2022-11-20T13:25:35;2.38;;;2.13;;
36585;SDS011;22591;48.314;11.562;2022-11-20T13:30:34;2.40;;;2.30;;
36585;SDS011;22591;48.314;11.562;2022-11-20T13:35:33;2.58;;;2.40;;
36585;SDS011;22591;48.314;11.562;2022-11-20T13:40:28;2.63;;;2.45;;
36585;SDS011;22591;48.314;11.562;2022-11-20T13:45:55;3.70;;;3.40;;
36585;SDS011;22591;48.314;11.562;2022-11-20T13:48:26;3.28;;;2.97;;
36585;SDS011;22591;48.314;11.562;2022-11-20T13:51:03;4.10;;;3.80;;
36585;SDS011;22591;48.314;11.562;2022-11-20T13:53:58;3.05;;;2.80;;
36585;SDS011;22591;48.314;11.562;2022-11-20T13:58:57;4.43;;;2.80;;
36585;SDS011;22591;48.314;11.562;2022-11-20T14:01:33;3.00;;;2.70;;
36585;SDS011;22591;48.314;11.562;2022-11-20T14:03:59;2.40;;;2.30;;
36585;SDS011;22591;48.314;11.562;2022-11-20T14:06:34;3.67;;;2.55;;
36585;SDS011;22591;48.314;11.562;2022-11-20T14:09:10;2.72;;;2.53;;
36585;SDS011;22591;48.314;11.562;2022-11-20T14:11:37;2.35;;;2.25;;
36585;SDS011;22591;48.314;11.562;2022-11-20T14:14:21;10.32;;;7.28;;
36585;SDS011;22591;48.314;11.562;2022-11-20T14:16:48;5.78;;;4.07;;
36585;SDS011;22591;48.314;11.562;2022-11-20T14:21:51;2.65;;;2.55;;
36585;SDS011;22591;48.314;11.562;2022-11-20T14:26:45;2.05;;;1.95;;
36585;SDS011;22591;48.314;11.562;2022-11-20T14:29:14;2.63;;;2.42;;
36585;SDS011;22591;48.314;11.562;2022-11-20T14:31:42;3.33;;;3.13;;
36585;SDS011;22591;48.314;11.562;2022-11-20T14:34:44;3.30;;;2.60;;
36585;SDS011;22591;48.314;11.562;2022-11-20T14:37:04;2.95;;;2.72;;
36585;SDS011;22591;48.314;11.562;2022-11-20T14:39:36;4.05;;;3.72;;
36585;SDS011;22591;48.314;11.562;2022-11-20T14:42:15;4.25;;;3.33;;
36585;SDS011;22591;48.314;11.562;2022-11-20T14:44:42;3.50;;;3.25;;
36585;SDS011;22591;48.314;11.562;2022-11-20T14:47:10;4.10;;;3.50;;
36585;SDS011;22591;48.314;11.562;2022-11-20T14:49:37;3.53;;;3.03;;
36585;SDS011;22591;48.314;11.562;2022-11-20T14:52:12;3.88;;;3.58;;
36585;SDS011;22591;48.314;11.562;2022-11-20T14:54:49;3.10;;;2.90;;
36585;SDS011;22591;48.314;11.562;2022-11-20T14:57:21;3.77;;;3.47;;
36585;SDS011;22591;48.314;11.562;2022-11-20T15:00:05;5.88;;;5.22;;
36585;SDS011;22591;48.314;11.562;2022-11-20T15:02:33;3.70;;;3.40;;
36585;SDS011;22591;48.314;11.562;2022-11-20T15:04:59;5.68;;;5.10;;
36585;SDS011;22591;48.314;11.562;2022-11-20T15:10:03;5.88;;;4.45;;
36585;SDS011;22591;48.314;11.562;2022-11-20T15:12:32;5.43;;;4.32;;
36585;SDS011;22591;48.314;11.562;2022-11-20T15:15:00;4.60;;;4.18;;
36585;SDS011;22591;48.314;11.562;2022-11-20T15:17:26;4.57;;;4.00;;
36585;SDS011;22591;48.314;11.562;2022-11-20T15:19:52;4.68;;;3.53;;
36585;SDS011;22591;48.314;11.562;2022-11-20T15:22:19;4.35;;;3.95;;
36585;SDS011;22591;48.314;11.562;2022-11-20T15:24:45;3.55;;;3.22;;
36585;SDS011;22591;48.314;11.562;2022-11-20T15:27:10;7.20;;;3.97;;
36585;SDS011;22591;48.314;11.562;2022-11-20T15:29:37;4.00;;;3.40;;
36585;SDS011;22591;48.314;11.562;2022-11-20T15:32:02;3.83;;;3.53;;
36585;SDS011;22591;48.314;11.562;2022-11-20T15:34:28;3.95;;;3.55;;
36585;SDS011;22591;48.314;11.562;2022-11-20T15:36:54;3.83;;;3.10;;
36585;SDS011;22591;48.314;11.562;2022-11-20T15:39:19;5.55;;;4.25;;
36585;SDS011;22591;48.314;11.562;2022-11-20T15:41:45;3.05;;;2.30;;
36585;SDS011;22591;48.314;11.562;2022-11-20T15:44:11;3.30;;;3.10;;
36585;SDS011;22591;48.314;11.562;2022-11-20T15:46:38;2.85;;;2.65;;
36585;SDS011;22591;48.314;11.562;2022-11-20T15:49:11;3.15;;;2.88;;
36585;SDS011;22591;48.314;11.562;2022-11-20T15:51:39;2.42;;;1.90;;
36585;SDS011;22591;48.314;11.562;2022-11-20T15:54:17;3.03;;;2.72;;
36585;SDS011;22591;48.314;11.562;2022-11-20T15:56:45;2.40;;;2.28;;
36585;SDS011;22591;48.314;11.562;2022-11-20T15:59:12;3.13;;;2.92;;
36585;SDS011;22591;48.314;11.562;2022-11-20T16:01:39;2.47;;;2.30;;
36585;SDS011;22591;48.314;11.562;2022-11-20T16:04:07;2.55;;;2.35;;
36585;SDS011;22591;48.314;11.562;2022-11-20T16:06:38;2.13;;;2.00;;
36585;SDS011;22591;48.314;11.562;2022-11-20T16:10:39;1.83;;;1.70;;
36585;SDS011;22591;48.314;11.562;2022-11-20T16:13:05;2.00;;;1.90;;
36585;SDS011;22591;48.314;11.562;2022-11-20T16:15:59;2.40;;;2.30;;
36585;SDS011;22591;48.314;11.562;2022-11-20T16:18:29;2.08;;;1.90;;
36585;SDS011;22591;48.314;11.562;2022-11-20T16:20:54;2.28;;;2.17;;
36585;SDS011;22591;48.314;11.562;2022-11-20T16:23:20;2.25;;;2.15;;
36585;SDS011;22591;48.314;11.562;2022-11-20T16:25:46;1.85;;;1.75;;
36585;SDS011;22591;48.314;11.562;2022-11-20T16:28:13;2.30;;;2.20;;
36585;SDS011;22591;48.314;11.562;2022-11-20T16:30:38;2.72;;;1.90;;
36585;SDS011;22591;48.314;11.562;2022-11-20T16:33:04;2.50;;;2.30;;
36585;SDS011;22591;48.314;11.562;2022-11-20T16:35:38;2.80;;;2.60;;
36585;SDS011;22591;48.314;11.562;2022-11-20T16:38:03;2.67;;;2.47;;
36585;SDS011;22591;48.314;11.562;2022-11-20T16:40:29;5.13;;;4.63;;
36585;SDS011;22591;48.314;11.562;2022-11-20T16:42:54;4.57;;;4.18;;
36585;SDS011;22591;48.314;11.562;2022-11-20T16:45:21;2.70;;;2.50;;